Terminal Aerodrome Forecast
Issued by NWS

Home | Current Version | Previous Version | Text Only | Print | Product List | Glossary Off
Versions: 1 2 3 4 5 6 7 8 9 10 11 12 13 14 15 16 17 18 19 20

000
FTUS43 KGRB 180520
TAFRHI
TAF
KRHI 180520Z 1806/1906 25004KT P6SM SKC
     FM180900 22003KT P6SM SCT100
     FM181600 14009G18KT P6SM OVC050 WS020/18040KT PROB30 1818/1824
      3SM -SHSN SCT025 OVC040
     FM190000 19010G15KT P6SM SCT035 OVC070 WS020/21055KT
     FM190200 21007KT P6SM OVC060 WS020/23045KT=

USA.gov is the U.S. government's official web portal to all federal, state and local government web resources and services.